Vesta, Virginia
Current Conditions -  °F | °C
As of 10:55 AM on Sunday 21 Dec 2014 (Local Time) from KMTV Reporting Station
Overcast Overcast  
Wind Chill: 41°   Ceiling: 3000
Heat Index: 41°   Visibility: 10mi
Dew Point: 34°   Wind: 3mph
Humidity: 75%   Direction: 70°ENE
Pressure: 30.33"   Gusts: NA
Location:  36.72°N, 80.36°W
Report Text: KMTV 211555Z AUTO 07003KT 10SM OVC030 05/01 A3033 RMK AO2 T00520011
Loading
Personal Weather Stations






























Interactive Weather Map New forecast layout! Learn more

10-Day Weather Forecast

Advertisements
Track Severe Weather on mobile